Time;durP1;ratioP1;P1;durP2;ratioP2;P2;SDS_P1;SDS_P2;PMS_P1;PMS_P2;Temp;Humidity;BMP_temperature;BMP_pressure;BME280_temperature;BME280_humidity;BME280_pressure;Samples;Min_cycle;Max_cycle;Signal;HPM_P1;HPM_P2
2023/03/15 00:01:13;;;;;;;13.87;2.10;;;2.30;99.90;;;;;;5069407;28;20056;-77
2023/03/15 00:03:39;;;;;;;11.40;1.60;;;2.20;99.90;;;;;;5068167;28;20135;-77
2023/03/15 00:06:05;;;;;;;13.37;2.07;;;2.20;99.90;;;;;;5065290;28;20044;-77
2023/03/15 00:08:32;;;;;;;11.20;1.73;;;2.10;99.90;;;;;;5038423;28;20460;-77
2023/03/15 00:10:58;;;;;;;13.40;1.97;;;2.00;99.90;;;;;;5067386;28;20414;-77
2023/03/15 00:13:24;;;;;;;10.60;1.60;;;2.00;99.90;;;;;;5049486;28;20044;-77
2023/03/15 00:15:52;;;;;;;11.23;1.30;;;1.90;99.90;;;;;;5068667;28;20044;-76
2023/03/15 00:18:19;;;;;;;6.80;1.07;;;1.80;99.90;;;;;;5034095;28;20037;-77
2023/03/15 00:20:46;;;;;;;12.73;1.50;;;1.70;99.90;;;;;;5068389;28;20052;-77
2023/03/15 00:23:12;;;;;;;11.57;1.43;;;1.70;99.90;;;;;;5066906;28;20053;-77
2023/03/15 00:25:38;;;;;;;12.97;1.20;;;1.80;99.90;;;;;;5068016;28;20319;-77
2023/03/15 00:28:04;;;;;;;11.60;1.53;;;1.80;99.90;;;;;;5051580;28;20049;-77
2023/03/15 00:30:30;;;;;;;11.20;1.30;;;1.80;99.90;;;;;;5067898;28;20128;-77
2023/03/15 00:32:55;;;;;;;11.97;1.93;;;1.90;99.90;;;;;;5076349;28;20048;-77
2023/03/15 00:35:22;;;;;;;12.10;1.60;;;1.80;99.90;;;;;;5051058;28;20507;-77
2023/03/15 00:37:49;;;;;;;14.30;1.50;;;1.80;99.90;;;;;;5049764;28;20088;-77
2023/03/15 00:40:14;;;;;;;12.30;1.50;;;1.70;99.90;;;;;;5050979;28;20056;-77
2023/03/15 00:42:40;;;;;;;12.50;1.43;;;1.80;99.90;;;;;;5067640;28;20422;-77
2023/03/15 00:45:06;;;;;;;11.93;1.30;;;2.20;99.90;;;;;;5049372;28;20052;-77
2023/03/15 00:47:32;;;;;;;9.07;1.20;;;1.80;99.90;;;;;;5040783;28;20052;-77
2023/03/15 00:49:58;;;;;;;10.23;1.67;;;1.80;99.90;;;;;;5068942;28;20563;-77
2023/03/15 00:52:23;;;;;;;11.77;1.27;;;2.00;99.90;;;;;;5065372;28;20052;-76
2023/03/15 00:54:53;;;;;;;9.53;1.87;;;2.00;99.90;;;;;;5068035;28;20079;-76
2023/03/15 00:57:19;;;;;;;8.60;1.37;;;1.80;99.90;;;;;;5033265;28;20163;-77
2023/03/15 00:59:45;;;;;;;10.03;1.40;;;1.90;99.90;;;;;;5050211;28;20128;-77
2023/03/15 01:02:11;;;;;;;14.47;1.80;;;1.80;99.90;;;;;;5067252;28;20067;-76
2023/03/15 01:04:37;;;;;;;9.97;1.67;;;1.90;99.90;;;;;;5068206;28;20118;-77
2023/03/15 01:07:03;;;;;;;15.80;1.57;;;1.70;99.90;;;;;;5052020;28;20044;-76
2023/03/15 01:09:30;;;;;;;11.53;1.60;;;1.70;99.90;;;;;;5067193;28;20052;-77
2023/03/15 01:11:59;;;;;;;8.87;1.30;;;2.20;99.90;;;;;;5067560;28;20075;-77
2023/03/15 01:14:24;;;;;;;9.77;1.37;;;1.70;99.90;;;;;;5067813;28;20091;-76
2023/03/15 01:16:50;;;;;;;9.13;1.53;;;1.80;99.90;;;;;;5052605;28;20514;-77
2023/03/15 01:19:16;;;;;;;14.77;2.07;;;1.60;99.90;;;;;;5066783;28;20078;-76
2023/03/15 01:21:43;;;;;;;9.50;1.47;;;1.50;99.90;;;;;;5068267;28;20056;-77
2023/03/15 01:24:13;;;;;;;9.37;1.67;;;1.50;99.90;;;;;;5048997;28;20056;-76
2023/03/15 01:26:38;;;;;;;14.70;1.67;;;1.50;99.90;;;;;;5057942;28;20045;-77
2023/03/15 01:29:04;;;;;;;10.80;1.60;;;1.50;99.90;;;;;;5068350;28;20052;-77
2023/03/15 01:31:30;;;;;;;12.27;1.53;;;1.40;99.90;;;;;;5076465;28;20044;-77
2023/03/15 01:33:57;;;;;;;12.07;1.90;;;1.50;99.90;;;;;;5080459;28;20123;-77
2023/03/15 01:36:23;;;;;;;8.97;1.23;;;1.40;99.90;;;;;;5053585;28;20068;-77
2023/03/15 01:38:49;;;;;;;12.47;1.80;;;1.40;99.90;;;;;;5068565;28;20041;-77
2023/03/15 01:41:17;;;;;;;11.30;1.50;;;1.30;99.90;;;;;;5071192;28;20123;-77
2023/03/15 01:43:46;;;;;;;11.30;1.40;;;1.30;99.90;;;;;;5071153;28;20056;-77
2023/03/15 01:46:34;;;;;;;11.60;2.17;;;1.30;99.90;;;;;;5049337;28;20040;-77
2023/03/15 01:49:18;;;;;;;12.90;1.97;;;1.30;99.90;;;;;;5050640;28;20047;-77
2023/03/15 01:52:01;;;;;;;16.27;1.70;;;1.20;99.90;;;;;;5054550;28;20040;-77
2023/03/15 01:54:32;;;;;;;8.73;1.60;;;1.20;99.90;;;;;;5070338;28;20095;-77
2023/03/15 01:57:35;;;;;;;12.57;2.15;;;1.20;99.90;;;;;;5055027;28;20041;-77
2023/03/15 02:00:10;;;;;;;14.90;1.87;;;1.20;99.90;;;;;;5066755;28;20056;-77
2023/03/15 02:02:45;;;;;;;11.97;2.13;;;1.20;99.90;;;;;;5052702;28;20526;-76
2023/03/15 02:05:15;;;;;;;20.57;1.87;;;1.20;99.90;;;;;;5036929;28;20045;-76
2023/03/15 02:07:48;;;;;;;11.65;1.50;;;1.30;99.90;;;;;;5054363;28;20403;-76
2023/03/15 02:10:17;;;;;;;14.20;1.73;;;1.20;99.90;;;;;;5071268;28;20491;-76
2023/03/15 02:12:50;;;;;;;12.63;1.80;;;1.20;99.90;;;;;;5070084;28;20131;-76
2023/03/15 02:15:17;;;;;;;14.47;1.80;;;1.20;99.90;;;;;;5070614;28;20052;-76
2023/03/15 02:17:45;;;;;;;15.40;1.63;;;1.20;99.90;;;;;;5036460;28;20406;-76
2023/03/15 02:20:43;;;;;;;12.43;1.73;;;1.30;99.90;;;;;;5053163;28;20047;-76
2023/03/15 02:23:13;;;;;;;8.73;1.80;;;1.30;99.90;;;;;;5070075;28;20051;-76
2023/03/15 02:25:48;;;;;;;9.80;1.33;;;1.50;99.90;;;;;;5071065;28;20048;-76
2023/03/15 02:28:16;;;;;;;7.40;1.10;;;1.30;99.90;;;;;;5035996;28;20036;-76
2023/03/15 02:30:43;;;;;;;10.37;1.00;;;1.40;99.90;;;;;;5070779;28;20502;-76
2023/03/15 02:33:23;;;;;;;5.90;1.03;;;1.90;99.90;;;;;;5070733;28;20177;-76
2023/03/15 02:35:50;;;;;;;7.67;0.83;;;1.50;99.90;;;;;;5069768;28;20099;-76
2023/03/15 02:38:16;;;;;;;7.67;1.30;;;1.40;99.90;;;;;;5023806;28;20057;-76
2023/03/15 02:40:44;;;;;;;8.30;0.90;;;1.70;99.90;;;;;;5070729;28;20044;-76
2023/03/15 02:43:24;;;;;;;7.13;1.03;;;1.30;99.90;;;;;;5069727;28;20040;-75
2023/03/15 02:45:49;;;;;;;8.20;1.10;;;1.20;99.90;;;;;;5069774;28;20097;-76
2023/03/15 02:48:16;;;;;;;8.07;1.20;;;1.20;99.90;;;;;;5019643;28;20490;-77
2023/03/15 02:50:42;;;;;;;6.47;1.27;;;1.10;99.90;;;;;;5066661;28;20175;-77
2023/03/15 02:53:08;;;;;;;6.37;1.30;;;1.00;99.90;;;;;;5060348;28;20127;-77
2023/03/15 02:55:34;;;;;;;9.23;1.33;;;1.00;99.90;;;;;;5052786;28;20052;-76
2023/03/15 02:58:00;;;;;;;9.43;1.37;;;0.90;99.90;;;;;;5053255;28;20479;-76
2023/03/15 03:00:27;;;;;;;9.43;1.43;;;0.90;99.90;;;;;;5069319;28;20807;-77
2023/03/15 03:02:53;;;;;;;9.50;1.40;;;0.80;99.90;;;;;;5068805;28;20056;-77
2023/03/15 03:05:19;;;;;;;10.37;1.77;;;0.80;99.90;;;;;;5069184;28;20047;-76
2023/03/15 03:07:45;;;;;;;11.40;1.50;;;0.80;99.90;;;;;;5052906;28;20111;-77
2023/03/15 03:10:13;;;;;;;8.27;1.67;;;0.80;99.90;;;;;;5052304;28;20333;-76
2023/03/15 03:12:39;;;;;;;11.80;1.30;;;0.80;99.90;;;;;;5068242;28;20464;-76
2023/03/15 03:15:06;;;;;;;11.00;1.73;;;0.80;99.90;;;;;;5070290;28;20127;-76
2023/03/15 03:17:36;;;;;;;7.93;1.60;;;0.80;99.90;;;;;;5053215;28;20044;-77
2023/03/15 03:20:09;;;;;;;7.40;1.17;;;0.80;99.90;;;;;;5070141;28;20217;-77
2023/03/15 03:22:36;;;;;;;11.27;1.80;;;0.80;99.90;;;;;;5051244;28;20127;-76
2023/03/15 03:25:03;;;;;;;10.67;1.40;;;0.80;99.90;;;;;;5052192;28;20053;-76
2023/03/15 03:27:29;;;;;;;8.87;1.67;;;0.90;99.90;;;;;;5053147;28;20102;-76
2023/03/15 03:29:55;;;;;;;9.83;1.30;;;0.90;99.90;;;;;;5051868;28;20044;-77
2023/03/15 03:32:20;;;;;;;8.33;1.47;;;1.30;99.90;;;;;;5073186;28;20368;-76
2023/03/15 03:34:47;;;;;;;9.50;1.47;;;0.90;99.90;;;;;;5034933;28;20376;-77
2023/03/15 03:37:20;;;;;;;14.07;1.30;;;0.90;99.90;;;;;;5035075;28;20105;-77
2023/03/15 03:39:46;;;;;;;5.90;1.00;;;0.90;99.90;;;;;;5069576;28;20482;-77
2023/03/15 03:42:13;;;;;;;10.37;0.90;;;0.90;99.90;;;;;;5068978;28;20052;-76
2023/03/15 03:44:39;;;;;;;7.13;0.90;;;0.80;99.90;;;;;;5059654;28;20051;-76
2023/03/15 03:47:05;;;;;;;6.97;1.17;;;0.80;99.90;;;;;;5059143;28;20388;-77
2023/03/15 03:49:31;;;;;;;6.53;0.70;;;0.80;99.90;;;;;;5068812;28;20063;-77
2023/03/15 03:51:56;;;;;;;5.67;0.80;;;0.70;99.90;;;;;;5056155;28;20530;-76
2023/03/15 03:54:23;;;;;;;7.17;1.20;;;0.70;99.90;;;;;;5063286;28;20052;-76
2023/03/15 03:56:49;;;;;;;8.93;1.20;;;0.70;99.90;;;;;;5054079;28;20134;-76
2023/03/15 03:59:15;;;;;;;7.20;0.80;;;0.60;99.90;;;;;;5050104;28;20402;-76
2023/03/15 04:01:41;;;;;;;5.87;1.00;;;0.80;99.90;;;;;;5067793;28;20060;-77
2023/03/15 04:04:07;;;;;;;5.73;0.87;;;0.60;99.90;;;;;;5068107;28;20661;-76
2023/03/15 04:06:33;;;;;;;6.93;1.20;;;0.50;99.90;;;;;;5054429;28;20070;-77
2023/03/15 04:09:01;;;;;;;5.13;0.70;;;0.60;99.90;;;;;;5047068;28;20131;-76
2023/03/15 04:11:27;;;;;;;9.13;1.03;;;0.50;99.90;;;;;;5069268;28;20064;-77
2023/03/15 04:13:53;;;;;;;4.07;0.83;;;0.50;99.90;;;;;;5067350;28;20087;-77
2023/03/15 04:16:19;;;;;;;6.70;1.00;;;0.60;99.90;;;;;;5060854;28;20490;-77
2023/03/15 04:18:45;;;;;;;7.80;0.70;;;1.10;99.90;;;;;;5059870;28;20040;-77
2023/03/15 04:21:11;;;;;;;5.67;0.80;;;0.60;99.90;;;;;;5069378;28;20160;-76
2023/03/15 04:23:37;;;;;;;5.53;1.00;;;0.60;99.90;;;;;;5068270;28;20177;-76
2023/03/15 04:26:06;;;;;;;7.47;0.70;;;0.50;99.90;;;;;;5068447;28;20105;-76
2023/03/15 04:28:32;;;;;;;6.80;0.87;;;0.40;99.90;;;;;;5039966;28;20427;-77
2023/03/15 04:31:00;;;;;;;3.90;0.83;;;0.40;99.90;;;;;;5068689;28;20446;-76
2023/03/15 04:33:27;;;;;;;7.63;0.70;;;0.50;99.90;;;;;;5059056;28;20447;-76
2023/03/15 04:35:52;;;;;;;4.07;0.67;;;0.20;99.90;;;;;;5065384;28;20491;-77
2023/03/15 04:38:25;;;;;;;8.70;0.83;;;0.20;99.90;;;;;;5044943;28;20075;-77
2023/03/15 04:40:52;;;;;;;5.23;0.60;;;0.20;99.90;;;;;;5069282;28;20059;-76
2023/03/15 04:43:18;;;;;;;6.53;0.80;;;0.20;99.90;;;;;;5067905;28;20553;-76
2023/03/15 04:45:43;;;;;;;6.80;0.83;;;0.10;99.90;;;;;;5068381;28;20486;-76
2023/03/15 04:48:09;;;;;;;3.73;0.60;;;0.10;99.90;;;;;;5051786;28;20098;-76
2023/03/15 04:50:35;;;;;;;4.43;0.77;;;0.00;99.90;;;;;;5065969;28;20041;-76
2023/03/15 04:53:01;;;;;;;3.97;0.60;;;0.00;99.90;;;;;;5065144;28;20699;-76
2023/03/15 04:55:27;;;;;;;4.60;0.70;;;-0.10;99.90;;;;;;5068337;28;20053;-76
2023/03/15 04:57:53;;;;;;;5.07;0.60;;;-0.10;99.90;;;;;;5051774;28;20044;-76
2023/03/15 05:00:19;;;;;;;6.67;0.93;;;0.10;99.90;;;;;;5051547;28;20047;-77
2023/03/15 05:02:50;;;;;;;6.13;1.00;;;-0.10;99.90;;;;;;5067778;28;20057;-76
2023/03/15 05:05:16;;;;;;;8.33;0.90;;;0.40;99.90;;;;;;5068138;28;20051;-76
2023/03/15 05:07:42;;;;;;;4.70;0.97;;;-0.10;99.90;;;;;;5052878;28;20048;-76
2023/03/15 05:10:08;;;;;;;5.43;1.20;;;0.50;99.90;;;;;;5034922;28;20490;-76
2023/03/15 05:12:34;;;;;;;9.13;1.47;;;-0.10;99.90;;;;;;5068665;28;20060;-77
2023/03/15 05:14:59;;;;;;;6.67;1.23;;;0.00;99.90;;;;;;5056099;28;20398;-77
2023/03/15 05:17:25;;;;;;;7.53;1.13;;;0.00;99.90;;;;;;5047833;28;20131;-76
2023/03/15 05:19:51;;;;;;;6.27;1.30;;;0.00;99.90;;;;;;5066203;28;20502;-77
2023/03/15 05:22:17;;;;;;;10.93;1.60;;;0.00;99.90;;;;;;5040445;28;20057;-76
2023/03/15 05:24:43;;;;;;;8.57;1.33;;;0.40;99.90;;;;;;5037272;28;20143;-76
2023/03/15 05:27:10;;;;;;;12.23;1.83;;;0.10;99.90;;;;;;5055328;28;20040;-76
2023/03/15 05:29:36;;;;;;;10.03;1.57;;;0.20;99.90;;;;;;5071479;28;20087;-76
2023/03/15 05:32:03;;;;;;;6.63;1.23;;;0.20;99.90;;;;;;5079629;28;20083;-76
2023/03/15 05:34:31;;;;;;;8.90;1.63;;;0.30;99.90;;;;;;5076304;28;20056;-77
2023/03/15 05:36:57;;;;;;;7.30;1.40;;;0.90;99.90;;;;;;5050652;28;20040;-77
2023/03/15 05:39:23;;;;;;;11.57;1.83;;;0.90;99.90;;;;;;5071270;28;20067;-76
2023/03/15 05:41:48;;;;;;;11.93;1.70;;;0.50;99.90;;;;;;5071465;28;20044;-76
2023/03/15 05:44:15;;;;;;;13.93;1.77;;;0.60;99.90;;;;;;5057127;28;20062;-76
2023/03/15 05:46:41;;;;;;;11.47;1.80;;;0.60;99.90;;;;;;5060401;28;20123;-76
2023/03/15 05:49:07;;;;;;;12.70;2.37;;;0.50;99.90;;;;;;5036108;28;20132;-76
2023/03/15 05:51:32;;;;;;;12.97;2.37;;;0.60;99.90;;;;;;5061308;28;20102;-77
2023/03/15 05:53:58;;;;;;;14.37;2.23;;;0.50;99.90;;;;;;5070126;28;20518;-77
2023/03/15 05:56:24;;;;;;;14.23;2.50;;;0.50;99.90;;;;;;5058967;28;20647;-76
2023/03/15 05:58:50;;;;;;;11.73;2.20;;;0.50;99.90;;;;;;5067575;28;20051;-76
2023/03/15 06:01:16;;;;;;;12.17;2.03;;;0.50;99.90;;;;;;5053786;28;20061;-76
2023/03/15 06:03:41;;;;;;;15.03;2.63;;;0.40;99.90;;;;;;5066750;28;20083;-76
2023/03/15 06:06:07;;;;;;;15.23;3.30;;;0.40;99.90;;;;;;5040266;28;20406;-77
2023/03/15 06:08:32;;;;;;;19.80;3.00;;;0.50;99.90;;;;;;5057081;28;20449;-76
2023/03/15 06:10:58;;;;;;;12.47;2.27;;;0.30;99.90;;;;;;5068625;28;20063;-77
2023/03/15 06:13:24;;;;;;;13.10;2.30;;;0.30;99.90;;;;;;5050199;28;20337;-76
2023/03/15 06:15:50;;;;;;;16.20;2.57;;;0.30;99.90;;;;;;5066709;28;20053;-76
2023/03/15 06:18:18;;;;;;;15.97;2.37;;;0.30;99.90;;;;;;5051405;28;20498;-76
2023/03/15 06:20:44;;;;;;;16.73;2.23;;;0.30;99.90;;;;;;5067574;28;20048;-76
2023/03/15 06:23:10;;;;;;;17.13;2.37;;;0.30;99.90;;;;;;5067274;28;20051;-76
2023/03/15 06:25:36;;;;;;;17.67;3.20;;;0.40;99.90;;;;;;5070444;28;20103;-76
2023/03/15 06:28:01;;;;;;;15.93;2.37;;;0.60;99.90;;;;;;5053685;28;20083;-77
2023/03/15 06:30:27;;;;;;;15.27;2.50;;;0.40;99.90;;;;;;5070798;28;20135;-77
2023/03/15 06:32:54;;;;;;;14.10;2.60;;;0.40;99.90;;;;;;5071306;28;20418;-76
2023/03/15 06:35:20;;;;;;;11.20;2.07;;;0.50;99.90;;;;;;5049826;28;20098;-76
2023/03/15 06:37:46;;;;;;;9.97;1.80;;;0.60;99.90;;;;;;5052637;28;20084;-77
2023/03/15 06:40:13;;;;;;;9.20;1.70;;;0.60;99.90;;;;;;5051634;28;20048;-76
2023/03/15 06:42:40;;;;;;;10.77;2.10;;;0.70;99.90;;;;;;5069975;28;20533;-76
2023/03/15 06:45:08;;;;;;;7.83;1.67;;;0.80;99.90;;;;;;5064670;28;20052;-76
2023/03/15 06:47:34;;;;;;;10.17;2.10;;;0.90;99.90;;;;;;5036280;28;20076;-76
2023/03/15 06:50:00;;;;;;;15.30;2.20;;;1.00;99.90;;;;;;5050864;28;20479;-76
2023/03/15 06:52:26;;;;;;;10.97;2.00;;;1.60;99.90;;;;;;5035657;28;20124;-76
2023/03/15 06:54:52;;;;;;;16.00;2.20;;;1.10;99.90;;;;;;5070463;28;20147;-76
2023/03/15 06:57:17;;;;;;;14.03;2.30;;;1.10;99.90;;;;;;5053884;28;20052;-76
2023/03/15 06:59:43;;;;;;;6.33;1.63;;;1.10;99.90;;;;;;5069502;28;20052;-76
2023/03/15 07:02:13;;;;;;;9.93;2.17;;;1.10;99.90;;;;;;5052024;28;20136;-76
2023/03/15 07:04:39;;;;;;;6.97;1.42;;;1.20;99.90;;;;;;5052111;28;20125;-76
2023/03/15 07:07:05;;;;;;;11.87;2.20;;;1.20;99.90;;;;;;5053144;28;20514;-76
2023/03/15 07:09:30;;;;;;;12.87;2.20;;;1.30;99.90;;;;;;5068889;28;20052;-76
2023/03/15 07:11:56;;;;;;;8.87;2.10;;;1.50;99.90;;;;;;5050661;28;20485;-76
2023/03/15 07:14:22;;;;;;;11.77;1.97;;;1.50;99.90;;;;;;5051245;28;20076;-76
2023/03/15 07:16:48;;;;;;;8.70;2.07;;;1.60;99.90;;;;;;5036763;28;20048;-76
2023/03/15 07:19:13;;;;;;;9.33;1.50;;;1.60;99.90;;;;;;5068736;28;20486;-76
2023/03/15 07:21:39;;;;;;;14.33;2.10;;;1.70;99.90;;;;;;5069390;28;20095;-76
2023/03/15 07:24:05;;;;;;;9.20;1.70;;;1.80;99.90;;;;;;5068646;28;20167;-76
2023/03/15 07:26:30;;;;;;;13.17;2.33;;;1.80;99.90;;;;;;5055683;28;20048;-76
2023/03/15 07:28:56;;;;;;;10.87;2.00;;;2.00;99.90;;;;;;5067018;28;20108;-76
2023/03/15 07:31:22;;;;;;;16.60;2.43;;;2.00;99.90;;;;;;5072801;28;20413;-76
2023/03/15 07:33:47;;;;;;;10.83;2.30;;;2.10;99.90;;;;;;5072140;28;20132;-76
2023/03/15 07:36:13;;;;;;;16.33;2.43;;;2.20;99.90;;;;;;5058349;28;20043;-76
2023/03/15 07:38:40;;;;;;;14.30;2.30;;;2.20;99.90;;;;;;5060241;28;20198;-76
2023/03/15 07:41:06;;;;;;;13.87;2.30;;;2.30;99.90;;;;;;5069051;28;20111;-76
2023/03/15 07:43:33;;;;;;;16.30;2.93;;;2.40;99.90;;;;;;5050662;28;20059;-76
2023/03/15 07:45:59;;;;;;;22.77;2.63;;;2.60;99.90;;;;;;5070038;28;20044;-76
2023/03/15 07:48:25;;;;;;;11.60;2.40;;;3.20;99.90;;;;;;5017650;28;20101;-76
2023/03/15 07:50:50;;;;;;;17.13;2.57;;;2.80;99.90;;;;;;5067498;28;20041;-75
2023/03/15 07:53:17;;;;;;;20.83;2.47;;;2.80;99.90;;;;;;5067906;28;20048;-76
2023/03/15 07:55:43;;;;;;;12.07;2.50;;;2.90;99.90;;;;;;5068559;28;20048;-76
2023/03/15 07:58:09;;;;;;;16.03;3.00;;;3.30;99.90;;;;;;5052101;28;20052;-76
2023/03/15 08:00:35;;;;;;;10.60;2.70;;;3.30;99.90;;;;;;5068894;28;20037;-75
2023/03/15 08:03:00;;;;;;;10.50;2.50;;;3.50;99.90;;;;;;5067606;28;20048;-76
2023/03/15 08:05:26;;;;;;;18.00;3.13;;;3.30;99.90;;;;;;5031966;28;20127;-76
2023/03/15 08:07:52;;;;;;;14.03;2.50;;;3.70;99.90;;;;;;5048414;28;20048;-76
2023/03/15 08:10:17;;;;;;;15.20;2.43;;;4.20;99.90;;;;;;5054380;28;20873;-77
2023/03/15 08:12:44;;;;;;;10.40;2.20;;;4.40;99.90;;;;;;5065034;28;20075;-77
2023/03/15 08:15:12;;;;;;;8.43;2.03;;;4.60;99.90;;;;;;5050834;28;20534;-76
2023/03/15 08:17:39;;;;;;;8.63;2.20;;;4.60;99.90;;;;;;5039507;28;20124;-77
2023/03/15 08:20:07;;;;;;;13.73;2.17;;;4.90;99.90;;;;;;5044172;28;20057;-77
2023/03/15 08:22:32;;;;;;;8.13;1.77;;;4.80;99.90;;;;;;5043298;28;20060;-77
2023/03/15 08:24:58;;;;;;;9.03;1.77;;;4.90;99.90;;;;;;5050240;28;20051;-76
2023/03/15 08:27:24;;;;;;;10.43;1.87;;;5.00;99.90;;;;;;5034671;28;20040;-76
2023/03/15 08:29:50;;;;;;;7.43;1.70;;;4.70;99.90;;;;;;5049554;28;20049;-77
2023/03/15 08:32:18;;;;;;;9.93;1.30;;;4.70;99.90;;;;;;5071650;28;20067;-76
2023/03/15 08:34:44;;;;;;;14.50;1.70;;;4.90;99.90;;;;;;5048662;28;20151;-76
2023/03/15 08:37:10;;;;;;;7.10;1.83;;;5.00;99.90;;;;;;5047793;28;20074;-76
2023/03/15 08:39:37;;;;;;;10.63;1.70;;;4.70;99.90;;;;;;5036165;28;20049;-76
2023/03/15 08:42:03;;;;;;;6.57;1.23;;;4.80;99.90;;;;;;5047551;28;21775;-75
2023/03/15 08:44:28;;;;;;;6.50;1.40;;;5.20;99.90;;;;;;5045021;28;20061;-78
2023/03/15 08:46:54;;;;;;;12.67;1.77;;;5.50;99.90;;;;;;5015332;28;20107;-77
2023/03/15 08:49:20;;;;;;;6.83;1.53;;;5.10;99.90;;;;;;5045231;28;20051;-76
2023/03/15 08:51:45;;;;;;;7.07;1.57;;;5.00;99.90;;;;;;5046709;28;20166;-76
2023/03/15 08:54:13;;;;;;;9.20;1.67;;;5.10;99.90;;;;;;5046310;28;20596;-77
2023/03/15 08:56:40;;;;;;;9.10;1.87;;;5.00;99.90;;;;;;5033134;28;20510;-76
2023/03/15 08:59:06;;;;;;;11.10;1.70;;;4.90;99.90;;;;;;5033843;28;20574;-76
2023/03/15 09:01:33;;;;;;;8.90;1.37;;;5.10;99.90;;;;;;5046365;28;20399;-76
2023/03/15 09:04:00;;;;;;;5.93;1.57;;;5.20;99.90;;;;;;5046619;28;20057;-77
2023/03/15 09:06:26;;;;;;;10.93;2.07;;;5.60;99.90;;;;;;5042976;28;20457;-76
2023/03/15 09:08:55;;;;;;;8.87;2.13;;;5.60;99.90;;;;;;5045612;28;20048;-77
2023/03/15 09:11:21;;;;;;;12.27;1.97;;;5.40;99.90;;;;;;5049802;28;20044;-76
2023/03/15 09:13:47;;;;;;;15.63;2.20;;;5.50;99.90;;;;;;5066876;28;20059;-76
2023/03/15 09:16:13;;;;;;;7.10;1.70;;;5.60;99.90;;;;;;5058851;28;20037;-77
2023/03/15 09:18:40;;;;;;;10.83;1.90;;;5.90;99.90;;;;;;5061147;28;20091;-76
2023/03/15 09:21:06;;;;;;;5.87;1.50;;;5.90;99.90;;;;;;5059404;28;20049;-76
2023/03/15 09:23:32;;;;;;;7.07;1.30;;;6.10;99.90;;;;;;5055124;28;20053;-77
2023/03/15 09:25:58;;;;;;;8.73;1.50;;;6.00;99.90;;;;;;5055965;28;20106;-77
2023/03/15 09:28:26;;;;;;;8.27;1.50;;;6.20;99.90;;;;;;5039771;28;20093;-76
2023/03/15 09:30:52;;;;;;;11.70;1.90;;;6.50;99.90;;;;;;5056252;28;20558;-77
2023/03/15 09:33:21;;;;;;;12.07;1.93;;;6.70;99.90;;;;;;5068735;28;20069;-76
2023/03/15 09:35:50;;;;;;;12.33;1.77;;;6.90;99.90;;;;;;5039585;28;20415;-76
2023/03/15 09:38:16;;;;;;;7.87;1.80;;;6.80;99.90;;;;;;5024162;28;20057;-76
2023/03/15 09:40:46;;;;;;;9.43;1.40;;;6.70;99.90;;;;;;5054956;28;20052;-77
2023/03/15 09:43:36;;;;;;;10.07;1.57;;;6.50;99.90;;;;;;5037343;28;20053;-77
2023/03/15 09:46:22;;;;;;;11.53;2.20;;;6.60;99.90;;;;;;5056819;28;20477;-77
2023/03/15 09:49:06;;;;;;;10.53;1.93;;;6.60;99.90;;;;;;5056353;28;20097;-76
2023/03/15 09:51:58;;;;;;;10.27;1.80;;;6.60;99.90;;;;;;5060519;28;20076;-76
2023/03/15 09:54:35;;;;;;;8.55;1.38;;;6.60;99.90;;;;;;5040943;28;20056;-77
2023/03/15 09:57:05;;;;;;;11.90;1.70;;;6.70;99.90;;;;;;5048816;28;20056;-77
2023/03/15 09:59:40;;;;;;;10.10;1.50;;;6.60;99.90;;;;;;5040565;28;20048;-77
2023/03/15 10:02:22;;;;;;;8.37;1.40;;;6.90;99.90;;;;;;5058253;28;20608;-77
2023/03/15 10:04:56;;;;;;;7.47;1.80;;;7.00;99.90;;;;;;5059359;28;20080;-76
2023/03/15 10:07:22;;;;;;;13.30;2.00;;;7.10;99.90;;;;;;5041522;28;20088;-77
2023/03/15 10:09:48;;;;;;;6.83;1.60;;;7.40;99.90;;;;;;5062729;28;20557;-77
2023/03/15 10:12:18;;;;;;;10.37;1.80;;;7.30;99.90;;;;;;5040085;28;20111;-77
2023/03/15 10:14:56;;;;;;;10.87;1.97;;;7.60;99.90;;;;;;5039734;28;20063;-77
2023/03/15 10:17:57;;;;;;;8.83;1.63;;;7.80;99.90;;;;;;5046123;28;23319;-76
2023/03/15 10:20:33;;;;;;;13.10;2.00;;;7.70;99.90;;;;;;5058585;28;20517;-77
2023/03/15 10:23:32;;;;;;;10.07;2.10;;;7.80;99.90;;;;;;5057560;28;20048;-77
2023/03/15 10:25:59;;;;;;;9.17;1.80;;;7.70;99.90;;;;;;5043891;28;20068;-77
2023/03/15 10:28:28;;;;;;;9.10;1.70;;;7.90;99.60;;;;;;5024976;28;20398;-77
2023/03/15 10:30:58;;;;;;;10.03;1.63;;;8.40;99.90;;;;;;5057703;28;21055;-77
2023/03/15 10:33:34;;;;;;;7.23;1.90;;;8.20;98.90;;;;;;5022832;28;20040;-76
2023/03/15 10:36:01;;;;;;;11.27;1.50;;;8.10;99.00;;;;;;5059189;28;20048;-77
2023/03/15 10:38:27;;;;;;;8.50;1.60;;;8.00;99.90;;;;;;5039345;28;20052;-77
2023/03/15 10:40:58;;;;;;;8.23;1.80;;;7.60;99.90;;;;;;5057903;28;20049;-77
2023/03/15 10:43:30;;;;;;;8.98;1.83;;;8.00;99.90;;;;;;5040102;28;20706;-76
2023/03/15 10:46:21;;;;;;;6.73;1.73;;;8.20;99.90;;;;;;5063809;28;20481;-76
2023/03/15 10:49:11;;;;;;;8.23;1.90;;;8.30;99.90;;;;;;5058803;28;20049;-77
2023/03/15 10:51:47;;;;;;;7.50;1.80;;;8.30;99.90;;;;;;5040147;28;21322;-76
2023/03/15 10:54:22;;;;;;;9.63;1.70;;;7.90;99.40;;;;;;5057188;28;20052;-76
2023/03/15 10:57:14;;;;;;;8.50;1.57;;;8.30;99.90;;;;;;5042459;28;20529;-76
2023/03/15 11:00:16;;;;;;;8.10;1.52;;;8.80;97.30;;;;;;5069478;28;20413;-77
2023/03/15 11:02:49;;;;;;;;;;;8.50;98.70;;;;;;5039125;28;20044;-76
2023/03/15 11:05:17;;;;;;;10.13;1.80;;;8.70;98.90;;;;;;5039471;28;19936;-76
2023/03/15 11:07:57;;;;;;;4.73;1.73;;;7.60;99.60;;;;;;5040854;28;20052;-77
2023/03/15 11:10:25;;;;;;;7.45;1.23;;;7.90;99.90;;;;;;5057076;28;20384;-76
2023/03/15 11:13:22;;;;;;;10.77;2.00;;;8.20;99.30;;;;;;5036619;28;20406;-77
2023/03/15 11:16:07;;;;;;;8.97;1.70;;;8.60;97.90;;;;;;5063956;28;20048;-77
2023/03/15 11:18:41;;;;;;;9.73;1.70;;;9.00;97.00;;;;;;5020829;28;20056;-77
2023/03/15 11:21:12;;;;;;;7.47;1.90;;;8.70;95.30;;;;;;5065216;28;20554;-77
2023/03/15 11:23:42;;;;;;;6.00;1.30;;;8.50;94.50;;;;;;5059308;28;20093;-76
2023/03/15 11:26:16;;;;;;;6.07;1.00;;;8.80;96.00;;;;;;5051142;28;20399;-77
2023/03/15 11:28:47;;;;;;;10.30;1.40;;;9.40;94.90;;;;;;5056169;28;20041;-77
2023/03/15 11:31:13;;;;;;;6.63;1.30;;;9.00;92.60;;;;;;5065318;28;20075;-77
2023/03/15 11:33:50;;;;;;;8.17;1.40;;;9.20;92.50;;;;;;5063254;28;20071;-76
2023/03/15 11:36:22;;;;;;;8.07;1.47;;;8.50;93.60;;;;;;5050955;28;20120;-77
2023/03/15 11:38:48;;;;;;;13.03;1.67;;;8.90;94.70;;;;;;5063402;28;20044;-76
2023/03/15 11:41:25;;;;;;;9.23;1.70;;;9.10;96.50;;;;;;5066629;28;20047;-76
2023/03/15 11:44:00;;;;;;;9.03;1.10;;;9.40;95.50;;;;;;5066206;28;20246;-77
2023/03/15 11:46:35;;;;;;;6.17;1.50;;;10.30;93.20;;;;;;5054332;28;20548;-77
2023/03/15 11:49:13;;;;;;;8.50;1.37;;;10.00;93.80;;;;;;5067379;28;20429;-76
2023/03/15 11:51:39;;;;;;;8.43;1.40;;;10.50;92.70;;;;;;5068603;28;20040;-77
2023/03/15 11:54:13;;;;;;;7.93;1.43;;;9.60;90.50;;;;;;5068332;28;20056;-76
2023/03/15 11:56:46;;;;;;;6.50;1.00;;;10.10;93.40;;;;;;5055107;28;20058;-77
2023/03/15 11:59:14;;;;;;;5.53;1.03;;;9.70;91.20;;;;;;5067694;28;20388;-76
2023/03/15 12:01:54;;;;;;;9.37;1.47;;;9.40;92.60;;;;;;5051521;28;20478;-77
2023/03/15 12:04:35;;;;;;;6.27;1.23;;;9.60;91.40;;;;;;5050615;28;20098;-77
2023/03/15 12:07:26;;;;;;;12.57;1.77;;;9.90;90.60;;;;;;5048670;28;20521;-76
2023/03/15 12:09:54;;;;;;;13.27;1.42;;;9.60;90.00;;;;;;5056978;28;20088;-76
2023/03/15 12:12:23;;;;;;;5.90;1.07;;;9.50;90.40;;;;;;5067576;28;20084;-77
2023/03/15 12:15:18;;;;;;;6.30;1.03;;;9.30;90.50;;;;;;5051203;28;20055;-76
2023/03/15 12:17:53;;;;;;;7.77;1.20;;;9.70;91.70;;;;;;5007401;28;20099;-76
2023/03/15 12:20:36;;;;;;;6.53;1.63;;;10.50;92.20;;;;;;5069013;28;20119;-77
2023/03/15 12:23:17;;;;;;;8.37;1.57;;;9.50;90.30;;;;;;5067724;28;20048;-77
2023/03/15 12:25:56;;;;;;;7.53;1.60;;;9.50;91.20;;;;;;5068966;28;20102;-76
2023/03/15 12:28:30;;;;;;;8.83;1.80;;;9.60;92.50;;;;;;5052424;28;20132;-77
2023/03/15 12:31:00;;;;;;;8.87;1.80;;;9.60;90.70;;;;;;5067070;28;20049;-77
2023/03/15 12:33:28;;;;;;;6.83;1.80;;;10.00;91.30;;;;;;5062081;28;20048;-76
2023/03/15 12:36:10;;;;;;;8.23;1.67;;;9.40;91.20;;;;;;5065078;28;20078;-76
2023/03/15 12:38:40;;;;;;;5.50;1.27;;;9.10;89.30;;;;;;5060486;28;20051;-77
2023/03/15 12:41:37;;;;;;;7.30;1.60;;;9.10;89.80;;;;;;5067113;28;20102;-76
2023/03/15 12:44:31;;;;;;;6.60;1.30;;;9.40;90.10;;;;;;5055646;28;20460;-76
2023/03/15 12:47:02;;;;;;;7.03;1.33;;;10.30;88.30;;;;;;5053231;28;20158;-77
2023/03/15 12:49:32;;;;;;;8.13;1.67;;;10.80;85.30;;;;;;5067735;28;20452;-76
2023/03/15 12:52:18;;;;;;;7.80;1.30;;;10.60;89.50;;;;;;5065559;28;20075;-77
2023/03/15 12:55:17;;;;;;;6.27;1.80;;;10.40;90.50;;;;;;5050631;28;20499;-76
2023/03/15 12:57:51;;;;;;;5.43;1.40;;;9.80;90.60;;;;;;5034693;28;20048;-76
2023/03/15 13:00:22;;;;;;;5.57;1.40;;;9.40;89.70;;;;;;5050659;28;20581;-76
2023/03/15 13:02:56;;;;;;;8.60;1.60;;;9.20;89.60;;;;;;5049685;28;20450;-76
2023/03/15 13:05:33;;;;;;;6.53;1.33;;;9.30;89.50;;;;;;5068295;28;20499;-76